EW8001 Weather Reports


Display with metric or nautical units.
time (UTC)temp
F
wind
direction
speed
MPH
gust
MPH
rain 1hr
in
rain 24hr
in
rain mn
in
humidity
%
barometer
mb
20180222045343 62 331 7.0 11.0 0.00 0.37 0.37 79 1031.8
20180222044824 62 311 7.0 9.0 0.00 0.37 0.37 80 1031.7
20180222044325 62 331 0.0 0.0 0.00 0.37 0.37 82 1031.5
20180222043826 62 331 0.0 0.0 0.00 0.37 0.37 82 1031.4
20180222043329 62 331 0.0 0.0 0.00 0.37 0.37 82 1031.3
20180222042833 62 331 0.0 0.0 0.00 0.37 0.37 83 1031.2
20180222042334 62 331 0.0 0.0 0.00 0.37 0.37 85 1031.0
20180222041834 61 331 0.0 0.0 0.00 0.37 0.37 87 1031.0
20180222041336 61 331 0.0 0.0 0.00 0.37 0.37 89 1030.9
20180222040837 61 331 0.0 0.0 0.00 0.37 0.37 90 1030.8
20180222040332 61 331 0.0 0.0 0.00 0.37 0.37 90 1030.4
20180222035831 61 331 0.0 0.0 0.00 0.37 0.37 90 1030.5
20180222035332 61 331 0.0 0.0 0.00 0.37 0.37 91 1030.9
20180222034835 61 331 0.0 0.0 0.00 0.37 0.37 91 1031.0
20180222034335 61 331 0.0 0.0 0.00 0.37 0.37 91 1030.8
20180222033835 61 331 0.0 0.0 0.00 0.37 0.37 90 1030.8
20180222033338 61 331 0.0 0.0 0.00 0.37 0.37 90 1030.6
20180222032838 61 331 0.0 0.0 0.00 0.37 0.37 90 1030.5
20180222032343 61 331 0.0 0.0 0.00 0.37 0.37 90 1030.3
20180222031824 61 331 0.0 0.0 0.00 0.37 0.37 90 1030.5
20180222031324 61 331 0.0 0.0 0.00 0.37 0.37 90 1030.5
20180222030825 61 331 0.0 0.0 0.00 0.37 0.37 90 1030.5
20180222030339 61 331 0.0 0.0 0.00 0.37 0.37 90 1030.6
20180222025840 61 331 0.0 0.0 0.00 0.37 0.37 90 1030.6
20180222025341 61 331 0.0 0.0 0.00 0.37 0.37 90 1030.4
20180222024842 61 331 0.0 0.0 0.01 0.37 0.37 90 1030.3
20180222024343 62 331 0.0 0.0 0.01 0.37 0.37 90 1030.3
20180222023823 62 331 0.0 0.0 0.01 0.37 0.37 89 1030.3
20180222023326 62 331 0.0 0.0 0.01 0.37 0.37 88 1030.1
20180222022826 62 331 0.0 0.0 0.01 0.37 0.37 88 1029.9
20180222022331 63 331 0.0 0.0 0.01 0.37 0.37 87 1030.0
20180222021831 63 331 0.0 0.0 0.01 0.37 0.37 87 1030.2
20180222021332 63 331 0.0 0.0 0.01 0.37 0.37 87 1030.3
20180222020833 63 331 0.0 0.0 0.01 0.37 0.37 86 1030.1
20180222020327 63 331 0.0 0.0 0.01 0.37 0.37 86 1029.9
20180222015826 64 331 0.0 0.0 0.01 0.37 0.37 85 1030.0
20180222015327 64 331 0.0 0.0 0.01 0.37 0.37 84 1030.0
20180222014827 65 331 0.0 0.0 0.00 0.36 0.36 83 1029.9
20180222014328 65 331 0.0 0.0 0.00 0.36 0.36 82 1029.9
20180222013828 65 331 0.0 0.0 0.00 0.36 0.36 80 1029.8
20180222013330 65 331 0.0 0.0 0.00 0.36 0.36 78 1029.8
20180222012829 65 331 0.0 0.0 0.00 0.36 0.36 75 1029.5
20180222012331 65 331 0.0 0.0 0.00 0.36 0.36 75 1029.3
20180222011835 65 331 0.0 0.0 0.00 0.36 0.36 76 1029.1
20180222011335 66 331 0.0 0.0 0.00 0.36 0.36 77 1029.1
20180222010836 66 331 0.0 0.0 0.00 0.36 0.36 74 1029.1
20180222010330 66 331 0.0 5.0 0.00 0.36 0.36 74 1029.1
20180222005830 66 331 1.0 5.0 0.00 0.36 0.36 74 1029.0
20180222005331 66 331 0.0 0.0 0.00 0.36 0.36 73 1028.9
20180222004832 66 331 0.0 6.0 0.00 0.36 0.36 72 1028.7
20180222004333 66 331 2.0 9.0 0.00 0.36 0.36 72 1028.8
20180222003835 67 330 5.0 14.0 0.00 0.36 0.36 71 1028.7
20180222003337 67 324 8.0 14.0 0.00 0.36 0.36 71 1028.7
20180222002836 67 329 8.0 13.0 0.00 0.36 0.36 71 1028.8
20180222002336 67 340 7.0 13.0 0.00 0.36 0.36 71 1028.7
20180222001838 67 351 6.0 13.0 0.00 0.36 0.36 72 1028.8
20180222001342 67 350 6.0 11.0 0.00 0.36 0.36 72 1028.8
20180222000823 68 344 4.0 13.0 0.00 0.36 0.36 72 1028.7
20180222000338 68 328 2.0 17.0 0.00 0.36 0.36 72 1028.7
20180221235839 68 340 9.0 20.0 0.00 0.36 0.36 71 1028.6
20180221235339 69 340 9.0 20.0 0.00 0.36 0.36 70 1028.3
20180221234841 70 329 7.0 17.0 0.00 0.36 0.36 70 1028.2
20180221234341 70 304 12.0 17.0 0.00 0.36 0.36 70 1028.2
20180221233842 71 310 11.0 18.0 0.00 0.36 0.36 74 1028.1
20180221233326 70 325 11.0 18.0 0.00 0.36 0.36 79 1028.0
20180221232827 68 218 0.0 0.0 0.00 0.36 0.36 88 1027.7
20180221232327 68 214 0.0 0.0 0.00 0.36 0.36 88 1027.5
20180221225842 69 214 0.0 0.0 0.00 0.36 0.36 88 1026.9
20180221225343 69 214 0.0 0.0 0.00 0.36 0.36 88 1026.7
20180221224843 69 214 0.0 0.0 0.00 0.36 0.36 88 1026.6
20180221224327 69 214 0.0 0.0 0.00 0.36 0.36 87 1026.6
20180221223828 69 215 0.0 0.0 0.00 0.36 0.36 87 1026.3
20180221223332 69 214 0.0 0.0 0.00 0.36 0.36 87 1026.1
20180221222832 69 214 0.0 0.0 0.00 0.36 0.36 87 1026.1
20180221222332 70 214 0.0 0.0 0.00 0.36 0.36 87 1026.1
20180221221834 70 214 0.0 0.0 0.00 0.36 0.36 87 1026.1
20180221221334 70 214 0.0 0.0 0.07 0.36 0.36 86 1026.2
20180221220835 70 215 0.0 0.0 0.35 0.36 0.36 86 1026.2
20180221220329 70 214 0.0 0.0 0.35 0.36 0.36 86 1026.1
20180221215829 70 215 0.0 0.0 0.36 0.36 0.36 86 1026.1
20180221215330 70 216 0.0 0.0 0.36 0.36 0.36 86 1026.1
20180221214831 70 216 0.0 5.0 0.36 0.36 0.36 85 1025.9
20180221214330 70 217 1.0 5.0 0.36 0.36 0.36 85 1025.8
20180221213835 70 243 3.0 5.0 0.36 0.36 0.36 85 1025.6
20180221213338 70 245 3.0 4.0 0.36 0.36 0.36 84 1025.5
20180221212837 70 245 1.0 3.0 0.36 0.36 0.36 82 1025.4
20180221212338 70 245 2.0 13.0 0.36 0.36 0.36 82 1025.5
20180221211838 71 245 4.0 31.0 0.36 0.36 0.36 79 1025.6
20180221211340 72 267 15.0 33.0 0.29 0.29 0.29 74 1025.8
20180221210840 78 252 12.0 27.0 0.01 0.01 0.01 59 1025.6
20180221210333 80 272 6.0 10.0 0.01 0.01 0.01 54 1025.0
20180221205832 81 243 6.0 10.0 0.00 0.00 0.00 50 1024.7
20180221205332 81 232 3.0 11.0 0.00 0.00 0.00 50 1024.7
20180221204833 81 240 4.0 11.0 0.00 0.00 0.00 50 1024.6
20180221204333 81 146 1.0 15.0 0.00 0.00 0.00 49 1024.5
20180221203834 82 201 5.0 15.0 0.00 0.00 0.00 49 1024.5
20180221203341 82 221 4.0 15.0 0.00 0.00 0.00 48 1024.4
20180221202840 82 198 3.0 15.0 0.00 0.00 0.00 47 1024.4
20180221202340 82 179 5.0 14.0 0.00 0.00 0.00 47 1024.5
20180221201840 82 229 5.0 14.0 0.00 0.00 0.00 47 1024.4
20180221201341 83 212 2.0 14.0 0.00 0.00 0.00 47 1024.3
20180221200841 83 150 4.0 14.0 0.00 0.00 0.00 47 1024.2
20180221200336 82 242 2.0 13.0 0.00 0.00 0.00 47 1024.2
20180221195836 82 234 2.0 16.0 0.00 0.00 0.00 47 1024.2
20180221195336 82 167 7.0 16.0 0.00 0.00 0.00 47 1024.3
20180221194837 82 221 2.0 13.0 0.00 0.00 0.00 47 1024.4
20180221194337 82 236 7.0 15.0 0.00 0.00 0.00 47 1024.4
20180221193839 82 199 5.0 15.0 0.00 0.00 0.00 47 1024.4
20180221193325 82 240 3.0 12.0 0.00 0.00 0.00 47 1024.4
20180221192824 82 197 2.0 15.0 0.00 0.00 0.00 47 1024.5
20180221192325 82 202 4.0 15.0 0.00 0.00 0.00 47 1024.5
20180221191826 82 178 3.0 15.0 0.00 0.00 0.00 47 1024.5
20180221191328 82 199 6.0 15.0 0.00 0.00 0.00 47 1024.4
20180221190829 82 154 6.0 21.0 0.00 0.00 0.00 47 1024.5
20180221190342 81 207 5.0 21.0 0.00 0.00 0.00 48 1024.6
20180221185842 81 233 10.0 20.0 0.00 0.00 0.00 48 1024.6
20180221185343 81 115 8.0 20.0 0.00 0.00 0.00 48 1024.5
20180221184843 81 123 8.0 15.0 0.00 0.00 0.00 48 1024.6
20180221184343 81 175 8.0 16.0 0.00 0.00 0.00 48 1024.7
20180221183824 82 227 2.0 18.0 0.00 0.00 0.00 48 1024.7
20180221183326 81 192 8.0 19.0 0.00 0.00 0.00 48 1024.8
20180221182830 81 163 4.0 19.0 0.00 0.00 0.00 49 1024.8
20180221182330 81 206 6.0 11.0 0.00 0.00 0.00 51 1024.9
20180221181831 81 178 2.0 18.0 0.00 0.00 0.00 50 1025.0
20180221181331 80 149 11.0 19.0 0.00 0.00 0.00 52 1025.1
20180221180832 79 173 10.0 18.0 0.00 0.00 0.00 54 1025.3
20180221180324 79 195 7.0 13.0 0.00 0.00 0.00 55 1025.1
20180221175824 79 139 7.0 16.0 0.00 0.00 0.00 56 1025.3
20180221175324 78 117 6.0 16.0 0.00 0.00 0.00 56 1025.4
20180221174825 79 207 9.0 16.0 0.00 0.00 0.00 55 1025.4
20180221174326 80 151 8.0 16.0 0.00 0.00 0.00 52 1025.5
20180221173826 80 165 3.0 18.0 0.00 0.00 0.00 50 1025.5
20180221173327 80 134 9.0 18.0 0.00 0.00 0.00 50 1025.6
20180221172826 79 209 7.0 19.0 0.00 0.00 0.00 51 1025.7
20180221172330 79 176 9.0 19.0 0.00 0.00 0.00 52 1025.8
20180221171831 79 172 4.0 21.0 0.00 0.00 0.00 54 1025.9
20180221171331 78 145 7.0 21.0 0.00 0.00 0.00 55 1026.0
20180221170832 78 180 9.0 20.0 0.00 0.00 0.00 55 1026.0
20180221170324 78 158 11.0 21.0 0.00 0.00 0.00 55 1026.2
20180221165823 78 167 10.0 21.0 0.00 0.00 0.00 55 1026.2
20180221165324 77 131 10.0 21.0 0.00 0.00 0.00 56 1026.4
20180221164824 77 144 6.0 15.0 0.00 0.00 0.00 57 1026.5
20180221164324 77 189 4.0 20.0 0.00 0.00 0.00 57 1026.5
20180221163825 77 211 8.0 20.0 0.00 0.00 0.00 56 1026.6
20180221163327 76 174 4.0 12.0 0.00 0.00 0.00 58 1026.7
20180221162826 76 241 5.0 18.0 0.00 0.00 0.00 58 1026.8
20180221162326 76 254 8.0 18.0 0.00 0.00 0.00 58 1026.7
20180221161832 75 278 6.0 13.0 0.00 0.00 0.00 58 1026.8
20180221161335 75 203 2.0 19.0 0.00 0.00 0.00 60 1026.8
20180221160834 75 244 5.0 19.0 0.00 0.00 0.00 59 1026.9
20180221160328 75 232 4.0 21.0 0.00 0.00 0.00 60 1027.0
20180221155828 75 165 8.0 22.0 0.00 0.00 0.00 61 1027.1
20180221155329 74 173 2.0 17.0 0.00 0.00 0.00 62 1027.1
20180221154829 73 189 7.0 17.0 0.00 0.00 0.00 62 1027.1
20180221154329 73 171 7.0 15.0 0.00 0.00 0.00 63 1027.1
20180221153829 73 208 7.0 16.0 0.00 0.00 0.00 63 1027.2
20180221153330 72 156 6.0 19.0 0.00 0.00 0.00 64 1027.2
20180221152829 72 164 10.0 19.0 0.00 0.00 0.00 65 1027.2
20180221152330 72 189 10.0 19.0 0.00 0.00 0.00 65 1027.4
20180221151830 71 240 4.0 14.0 0.00 0.00 0.00 67 1027.4
20180221151335 71 158 1.0 14.0 0.00 0.00 0.00 67 1027.4
20180221150835 70 163 5.0 15.0 0.00 0.00 0.00 68 1027.5
20180221150328 70 179 4.0 13.0 0.00 0.00 0.00 68 1027.5
20180221145829 69 175 1.0 11.0 0.00 0.00 0.00 70 1027.5
20180221145330 69 182 4.0 15.0 0.00 0.00 0.00 71 1027.5
20180221144830 68 182 1.0 15.0 0.00 0.00 0.00 72 1027.6
20180221144331 67 154 0.0 12.0 0.00 0.00 0.00 73 1027.7
20180221143832 67 148 6.0 13.0 0.00 0.00 0.00 73 1027.7
20180221143332 66 155 6.0 13.0 0.00 0.00 0.00 74 1027.7
20180221142832 66 178 2.0 10.0 0.00 0.00 0.00 74 1027.7
20180221142333 66 177 3.0 11.0 0.00 0.00 0.00 74 1027.6
20180221141833 66 160 4.0 11.0 0.00 0.00 0.00 75 1027.8
20180221141334 65 158 0.0 7.0 0.00 0.00 0.00 75 1027.8
20180221140838 65 158 2.0 8.0 0.00 0.00 0.00 76 1027.8
20180221140330 64 158 0.0 9.0 0.00 0.00 0.00 77 1027.7
20180221135830 64 158 4.0 9.0 0.00 0.00 0.00 77 1027.7
20180221135331 64 158 1.0 5.0 0.00 0.00 0.00 78 1027.8
20180221134831 63 158 0.0 2.0 0.00 0.00 0.00 78 1027.8
20180221134331 63 158 0.0 6.0 0.00 0.00 0.00 79 1027.7
20180221133832 63 158 2.0 6.0 0.00 0.00 0.00 79 1027.8
20180221133334 63 158 1.0 5.0 0.00 0.00 0.00 80 1027.8
20180221132833 62 158 0.0 0.0 0.00 0.00 0.00 81 1027.7
20180221132334 61 158 0.0 1.0 0.00 0.00 0.00 82 1027.7
20180221131835 61 158 0.0 1.0 0.00 0.00 0.00 84 1027.7
20180221131336 60 158 0.0 0.0 0.00 0.00 0.00 85 1027.7
20180221130837 59 158 0.0 0.0 0.00 0.00 0.00 86 1027.7
20180221130334 58 158 0.0 0.0 0.00 0.00 0.00 88 1027.6
20180221125832 56 158 0.0 0.0 0.00 0.00 0.00 88 1027.6
20180221125333 55 158 0.0 0.0 0.00 0.00 0.00 88 1027.4
20180221124834 54 158 0.0 0.0 0.00 0.00 0.00 89 1027.6
20180221124335 54 158 0.0 0.0 0.00 0.00 0.00 89 1027.5
20180221123836 53 158 0.0 0.0 0.00 0.00 0.00 88 1027.6
20180221123336 53 158 0.0 0.0 0.00 0.00 0.00 88 1027.4
20180221122836 54 158 0.0 0.0 0.00 0.00 0.00 89 1027.4
20180221122336 53 158 0.0 0.0 0.00 0.00 0.00 90 1027.5
20180221121836 53 158 0.0 0.0 0.00 0.00 0.00 90 1027.4
20180221121337 52 158 0.0 0.0 0.00 0.00 0.00 88 1027.4
20180221120838 52 158 0.0 0.0 0.00 0.00 0.00 88 1027.4
20180221120331 53 158 0.0 0.0 0.00 0.00 0.00 88 1027.2
20180221115836 53 158 0.0 0.0 0.00 0.00 0.00 89 1027.2
20180221115336 52 158 0.0 0.0 0.00 0.00 0.00 87 1027.2
20180221114837 53 158 0.0 0.0 0.00 0.00 0.00 87 1027.2
20180221114338 53 158 0.0 0.0 0.00 0.00 0.00 87 1027.1
20180221113839 53 158 0.0 0.0 0.00 0.00 0.00 88 1027.1
20180221113341 53 158 0.0 0.0 0.00 0.00 0.00 88 1027.1
20180221112842 53 158 0.0 0.0 0.00 0.00 0.00 88 1027.2
20180221112343 53 158 0.0 0.0 0.00 0.00 0.00 88 1027.2
20180221111823 53 158 0.0 0.0 0.00 0.00 0.00 87 1027.2
20180221111324 53 158 0.0 0.0 0.00 0.00 0.00 87 1027.3
20180221110825 53 158 0.0 0.0 0.00 0.00 0.00 87 1027.2
20180221110339 53 158 0.0 0.0 0.00 0.00 0.00 86 1027.1
20180221105823 54 158 0.0 0.0 0.00 0.00 0.00 86 1027.2
20180221105324 54 158 0.0 0.0 0.00 0.00 0.00 86 1027.2
20180221104825 54 158 0.0 0.0 0.00 0.00 0.00 86 1027.2
20180221104325 54 158 0.0 0.0 0.00 0.00 0.00 86 1027.2
20180221103827 55 158 0.0 0.0 0.00 0.00 0.00 85 1027.1
20180221103330 55 158 0.0 0.0 0.00 0.00 0.00 85 1027.1
20180221102830 56 158 0.0 0.0 0.00 0.00 0.00 85 1027.0
20180221102331 56 158 0.0 0.0 0.00 0.00 0.00 85 1027.0
20180221101832 56 158 0.0 0.0 0.00 0.00 0.00 86 1026.9
20180221101332 56 158 0.0 0.0 0.00 0.00 0.00 86 1026.9
20180221100833 56 158 0.0 0.0 0.00 0.00 0.00 85 1026.8
20180221100328 56 158 0.0 0.0 0.00 0.00 0.00 85 1026.7
20180221095827 56 158 0.0 0.0 0.00 0.00 0.00 86 1026.9
20180221095332 56 158 0.0 0.0 0.00 0.00 0.00 86 1026.9
20180221094833 56 158 0.0 0.0 0.00 0.00 0.00 87 1026.9
20180221094333 56 158 0.0 0.0 0.00 0.00 0.00 87 1027.0
20180221093834 56 158 0.0 0.0 0.00 0.00 0.00 86 1027.0
20180221093336 56 158 0.0 0.0 0.00 0.00 0.00 85 1027.0
20180221092837 56 158 0.0 0.0 0.00 0.00 0.00 84 1027.0
20180221092338 57 158 0.0 0.0 0.00 0.00 0.00 84 1027.0
20180221091838 57 158 0.0 0.0 0.00 0.00 0.00 84 1027.1
20180221091340 57 158 0.0 0.0 0.00 0.00 0.00 85 1027.1
20180221090841 57 158 0.0 0.0 0.00 0.00 0.00 85 1027.0
20180221090335 57 158 0.0 0.0 0.00 0.00 0.00 84 1026.9
20180221085834 58 158 0.0 0.0 0.00 0.00 0.00 84 1026.9
20180221085335 57 158 0.0 0.0 0.00 0.00 0.00 83 1026.9
20180221084840 58 158 0.0 0.0 0.00 0.00 0.00 82 1026.9
20180221084341 58 158 0.0 0.0 0.00 0.00 0.00 83 1026.9
20180221083843 59 158 0.0 0.0 0.00 0.00 0.00 84 1026.9
20180221083325 59 158 0.0 0.0 0.00 0.00 0.00 83 1026.9
20180221082826 59 158 0.0 0.0 0.00 0.00 0.00 84 1026.9
20180221082326 59 158 0.0 0.0 0.00 0.00 0.00 82 1026.9
20180221081827 59 158 0.0 0.0 0.00 0.00 0.00 82 1027.0
20180221081328 60 158 0.0 0.0 0.00 0.00 0.00 80 1027.0
20180221080829 60 158 0.0 0.0 0.00 0.00 0.00 79 1026.9
20180221080342 61 158 0.0 0.0 0.00 0.00 0.00 78 1026.9
20180221075843 61 158 0.0 0.0 0.00 0.00 0.00 79 1026.9
20180221075323 61 158 0.0 2.0 0.00 0.00 0.00 79 1026.9
20180221074828 61 158 0.0 0.0 0.00 0.00 0.00 80 1027.0
20180221074329 61 158 0.0 0.0 0.00 0.00 0.00 80 1027.0
20180221073831 61 158 0.0 0.0 0.00 0.00 0.00 79 1027.0
20180221073333 61 158 0.0 0.0 0.00 0.00 0.00 81 1027.1
20180221072833 60 158 0.0 0.0 0.00 0.00 0.00 82 1027.1
20180221072334 59 158 0.0 0.0 0.00 0.00 0.00 83 1027.1
20180221071834 59 158 0.0 0.0 0.00 0.00 0.00 82 1027.2
20180221071335 59 158 0.0 0.0 0.00 0.00 0.00 82 1027.2
20180221070837 59 158 0.0 0.0 0.00 0.00 0.00 82 1027.3
20180221070346 59 158 0.0 0.0 0.00 0.00 0.00 81 1027.3
20180221065824 60 158 0.0 0.0 0.00 0.00 0.00 80 1027.3
20180221065325 60 158 0.0 0.0 0.00 0.00 0.00 81 1027.3
20180221064825 60 158 0.0 0.0 0.00 0.00 0.00 81 1027.4
20180221064330 60 158 0.0 0.0 0.00 0.00 0.00 81 1027.4
20180221063831 60 158 0.0 0.0 0.00 0.00 0.00 81 1027.4
20180221063333 60 158 0.0 0.0 0.00 0.00 0.00 81 1027.4
20180221062833 60 158 0.0 0.0 0.00 0.00 0.00 80 1027.4
20180221062334 60 158 0.0 0.0 0.00 0.00 0.00 80 1027.4
20180221061835 61 158 0.0 0.0 0.00 0.00 0.00 79 1027.5
20180221061335 61 158 0.0 0.0 0.00 0.00 0.00 78 1027.5
20180221060836 62 158 0.0 0.0 0.00 0.00 0.00 77 1027.5
20180221060331 62 158 0.0 2.0 0.00 0.00 0.00 78 1027.5
20180221055830 62 158 1.0 3.0 0.00 0.00 0.00 77 1027.5
20180221055331 63 158 1.0 3.0 0.00 0.00 0.00 76 1027.4
20180221054832 63 158 2.0 3.0 0.00 0.00 0.00 76 1027.5
20180221054333 63 158 2.0 3.0 0.00 0.00 0.00 76 1027.6
20180221053837 63 158 2.0 3.0 0.00 0.00 0.00 76 1027.5
20180221053339 64 158 2.0 5.0 0.00 0.00 0.00 76 1027.6
20180221052840 64 158 2.0 3.0 0.00 0.00 0.00 76 1027.6
20180221052341 64 158 2.0 5.0 0.00 0.00 0.00 76 1027.6
20180221051842 64 158 2.0 5.0 0.00 0.00 0.00 76 1027.6
20180221051343 64 158 3.0 7.0 0.00 0.00 0.00 76 1027.6
20180221050843 64 158 3.0 7.0 0.00 0.00 0.00 76 1027.5
20180221050337 64 158 2.0 5.0 0.00 0.00 0.00 76 1027.4
20180221045838 64 158 2.0 6.0 0.00 0.00 0.00 76 1027.4